sensor_id;sensor_type;location;lat;lon;timestamp;P1;durP1;ratioP1;P2;durP2;ratioP2
34102;SDS011;20381;54.498;18.206;2023-04-01T00:00:57;7.25;;;4.15;;
34102;SDS011;20381;54.498;18.206;2023-04-01T00:03:25;5.28;;;3.72;;
34102;SDS011;20381;54.498;18.206;2023-04-01T00:05:54;6.45;;;4.30;;
34102;SDS011;20381;54.498;18.206;2023-04-01T00:08:22;33.33;;;5.37;;
34102;SDS011;20381;54.498;18.206;2023-04-01T00:10:49;4.20;;;3.33;;
34102;SDS011;20381;54.498;18.206;2023-04-01T00:13:16;8.60;;;3.67;;
34102;SDS011;20381;54.498;18.206;2023-04-01T00:15:42;8.45;;;4.03;;
34102;SDS011;20381;54.498;18.206;2023-04-01T00:18:09;6.53;;;3.60;;
34102;SDS011;20381;54.498;18.206;2023-04-01T00:20:36;6.45;;;3.50;;
34102;SDS011;20381;54.498;18.206;2023-04-01T00:23:02;7.60;;;4.58;;
34102;SDS011;20381;54.498;18.206;2023-04-01T00:25:28;5.20;;;3.45;;
34102;SDS011;20381;54.498;18.206;2023-04-01T00:27:55;6.37;;;3.22;;
34102;SDS011;20381;54.498;18.206;2023-04-01T00:30:22;3.47;;;3.02;;
34102;SDS011;20381;54.498;18.206;2023-04-01T00:32:51;3.33;;;3.02;;
34102;SDS011;20381;54.498;18.206;2023-04-01T00:35:19;3.10;;;2.72;;
34102;SDS011;20381;54.498;18.206;2023-04-01T00:37:46;3.15;;;2.85;;
34102;SDS011;20381;54.498;18.206;2023-04-01T00:41:13;2.95;;;2.65;;
34102;SDS011;20381;54.498;18.206;2023-04-01T00:42:58;3.85;;;3.45;;
34102;SDS011;20381;54.498;18.206;2023-04-01T00:48:06;3.02;;;2.45;;
34102;SDS011;20381;54.498;18.206;2023-04-01T00:50:30;11.48;;;3.60;;
34102;SDS011;20381;54.498;18.206;2023-04-01T00:52:59;12.70;;;3.08;;
34102;SDS011;20381;54.498;18.206;2023-04-01T00:55:27;11.38;;;2.92;;
34102;SDS011;20381;54.498;18.206;2023-04-01T00:57:56;3.83;;;3.42;;
34102;SDS011;20381;54.498;18.206;2023-04-01T01:00:24;6.05;;;2.67;;
34102;SDS011;20381;54.498;18.206;2023-04-01T01:02:51;5.35;;;3.33;;
34102;SDS011;20381;54.498;18.206;2023-04-01T01:05:18;4.45;;;3.30;;
34102;SDS011;20381;54.498;18.206;2023-04-01T01:08:13;3.67;;;3.37;;
34102;SDS011;20381;54.498;18.206;2023-04-01T01:10:23;3.10;;;2.77;;
34102;SDS011;20381;54.498;18.206;2023-04-01T01:27:04;3.30;;;2.87;;
34102;SDS011;20381;54.498;18.206;2023-04-01T01:32:25;3.15;;;2.70;;
34102;SDS011;20381;54.498;18.206;2023-04-01T01:37:31;7.72;;;3.20;;
34102;SDS011;20381;54.498;18.206;2023-04-01T01:40:00;4.35;;;2.83;;
34102;SDS011;20381;54.498;18.206;2023-04-01T01:42:28;3.37;;;3.08;;
34102;SDS011;20381;54.498;18.206;2023-04-01T01:44:58;3.70;;;3.20;;
34102;SDS011;20381;54.498;18.206;2023-04-01T01:47:28;16.32;;;3.50;;
34102;SDS011;20381;54.498;18.206;2023-04-01T01:49:56;3.12;;;2.60;;
34102;SDS011;20381;54.498;18.206;2023-04-01T01:52:24;5.53;;;3.30;;
34102;SDS011;20381;54.498;18.206;2023-04-01T01:54:53;4.03;;;3.52;;
34102;SDS011;20381;54.498;18.206;2023-04-01T01:57:26;4.65;;;3.50;;
34102;SDS011;20381;54.498;18.206;2023-04-01T01:59:56;3.60;;;2.70;;
34102;SDS011;20381;54.498;18.206;2023-04-01T02:02:24;7.72;;;3.58;;
34102;SDS011;20381;54.498;18.206;2023-04-01T02:04:53;5.83;;;2.83;;
34102;SDS011;20381;54.498;18.206;2023-04-01T02:07:21;4.10;;;3.02;;
34102;SDS011;20381;54.498;18.206;2023-04-01T02:09:53;3.50;;;3.20;;
34102;SDS011;20381;54.498;18.206;2023-04-01T02:12:20;3.85;;;3.35;;
34102;SDS011;20381;54.498;18.206;2023-04-01T02:14:51;3.92;;;3.60;;
34102;SDS011;20381;54.498;18.206;2023-04-01T02:17:20;3.50;;;3.20;;
34102;SDS011;20381;54.498;18.206;2023-04-01T02:22:34;17.62;;;3.55;;
34102;SDS011;20381;54.498;18.206;2023-04-01T02:25:12;3.50;;;3.20;;
34102;SDS011;20381;54.498;18.206;2023-04-01T02:27:37;4.28;;;3.35;;
34102;SDS011;20381;54.498;18.206;2023-04-01T02:30:05;5.20;;;3.17;;
34102;SDS011;20381;54.498;18.206;2023-04-01T02:32:33;17.50;;;3.47;;
34102;SDS011;20381;54.498;18.206;2023-04-01T02:35:08;3.37;;;3.08;;
34102;SDS011;20381;54.498;18.206;2023-04-01T02:37:33;3.08;;;2.77;;
34102;SDS011;20381;54.498;18.206;2023-04-01T02:40:03;3.22;;;3.00;;
34102;SDS011;20381;54.498;18.206;2023-04-01T02:42:33;3.22;;;2.77;;
34102;SDS011;20381;54.498;18.206;2023-04-01T02:44:59;4.70;;;2.95;;
34102;SDS011;20381;54.498;18.206;2023-04-01T02:47:26;3.60;;;3.20;;
34102;SDS011;20381;54.498;18.206;2023-04-01T02:49:52;3.17;;;2.55;;
34102;SDS011;20381;54.498;18.206;2023-04-01T02:52:20;8.63;;;2.70;;
34102;SDS011;20381;54.498;18.206;2023-04-01T02:54:46;3.58;;;3.27;;
34102;SDS011;20381;54.498;18.206;2023-04-01T02:57:12;3.40;;;3.10;;
34102;SDS011;20381;54.498;18.206;2023-04-01T02:59:38;3.10;;;2.80;;
34102;SDS011;20381;54.498;18.206;2023-04-01T03:02:05;4.62;;;2.85;;
34102;SDS011;20381;54.498;18.206;2023-04-01T03:04:32;3.90;;;3.40;;
34102;SDS011;20381;54.498;18.206;2023-04-01T03:06:58;3.72;;;3.37;;
34102;SDS011;20381;54.498;18.206;2023-04-01T03:09:25;3.87;;;3.47;;
34102;SDS011;20381;54.498;18.206;2023-04-01T03:11:51;3.77;;;3.33;;
34102;SDS011;20381;54.498;18.206;2023-04-01T03:14:17;4.53;;;3.50;;
34102;SDS011;20381;54.498;18.206;2023-04-01T03:16:43;6.83;;;2.92;;
34102;SDS011;20381;54.498;18.206;2023-04-01T03:19:10;3.52;;;3.22;;
34102;SDS011;20381;54.498;18.206;2023-04-01T03:21:37;4.45;;;3.40;;
34102;SDS011;20381;54.498;18.206;2023-04-01T03:26:30;3.75;;;3.35;;
34102;SDS011;20381;54.498;18.206;2023-04-01T03:28:56;3.58;;;3.27;;
34102;SDS011;20381;54.498;18.206;2023-04-01T03:31:23;5.92;;;3.20;;
34102;SDS011;20381;54.498;18.206;2023-04-01T03:33:50;5.42;;;4.20;;
34102;SDS011;20381;54.498;18.206;2023-04-01T03:36:17;2.62;;;2.42;;
34102;SDS011;20381;54.498;18.206;2023-04-01T03:38:44;3.67;;;3.37;;
34102;SDS011;20381;54.498;18.206;2023-04-01T03:41:14;3.40;;;3.10;;
34102;SDS011;20381;54.498;18.206;2023-04-01T03:43:42;4.05;;;3.65;;
34102;SDS011;20381;54.498;18.206;2023-04-01T03:46:08;3.40;;;3.10;;
34102;SDS011;20381;54.498;18.206;2023-04-01T03:48:35;3.52;;;3.22;;
34102;SDS011;20381;54.498;18.206;2023-04-01T03:51:06;3.45;;;2.95;;
34102;SDS011;20381;54.498;18.206;2023-04-01T03:53:33;3.33;;;3.05;;
34102;SDS011;20381;54.498;18.206;2023-04-01T03:56:03;3.87;;;3.47;;
34102;SDS011;20381;54.498;18.206;2023-04-01T03:58:31;9.63;;;2.80;;
34102;SDS011;20381;54.498;18.206;2023-04-01T04:00:57;4.53;;;2.45;;
34102;SDS011;20381;54.498;18.206;2023-04-01T04:03:23;3.87;;;2.50;;
34102;SDS011;20381;54.498;18.206;2023-04-01T04:05:49;9.65;;;2.45;;
34102;SDS011;20381;54.498;18.206;2023-04-01T04:08:15;2.87;;;2.40;;
34102;SDS011;20381;54.498;18.206;2023-04-01T04:10:43;2.80;;;2.60;;
34102;SDS011;20381;54.498;18.206;2023-04-01T04:13:09;2.58;;;2.35;;
34102;SDS011;20381;54.498;18.206;2023-04-01T04:15:35;2.72;;;2.50;;
34102;SDS011;20381;54.498;18.206;2023-04-01T04:18:01;2.95;;;2.72;;
34102;SDS011;20381;54.498;18.206;2023-04-01T04:20:28;3.17;;;2.87;;
34102;SDS011;20381;54.498;18.206;2023-04-01T04:22:54;2.98;;;2.67;;
34102;SDS011;20381;54.498;18.206;2023-04-01T04:25:20;10.80;;;3.05;;
34102;SDS011;20381;54.498;18.206;2023-04-01T04:27:47;5.08;;;4.00;;
34102;SDS011;20381;54.498;18.206;2023-04-01T04:30:13;4.92;;;3.75;;
34102;SDS011;20381;54.498;18.206;2023-04-01T04:32:40;4.72;;;4.12;;
34102;SDS011;20381;54.498;18.206;2023-04-01T04:35:08;9.33;;;3.83;;
34102;SDS011;20381;54.498;18.206;2023-04-01T04:40:01;15.23;;;5.70;;
34102;SDS011;20381;54.498;18.206;2023-04-01T04:42:27;4.17;;;2.62;;
34102;SDS011;20381;54.498;18.206;2023-04-01T04:44:53;4.30;;;2.15;;
34102;SDS011;20381;54.498;18.206;2023-04-01T04:47:20;32.42;;;2.17;;
34102;SDS011;20381;54.498;18.206;2023-04-01T04:49:46;3.67;;;1.72;;
34102;SDS011;20381;54.498;18.206;2023-04-01T04:52:12;19.42;;;2.20;;
34102;SDS011;20381;54.498;18.206;2023-04-01T04:54:38;17.10;;;2.70;;
34102;SDS011;20381;54.498;18.206;2023-04-01T04:57:05;22.07;;;3.58;;
34102;SDS011;20381;54.498;18.206;2023-04-01T04:59:31;8.43;;;3.55;;
34102;SDS011;20381;54.498;18.206;2023-04-01T05:01:57;12.78;;;2.47;;
34102;SDS011;20381;54.498;18.206;2023-04-01T05:04:24;7.03;;;2.00;;
34102;SDS011;20381;54.498;18.206;2023-04-01T05:06:50;16.25;;;2.25;;
34102;SDS011;20381;54.498;18.206;2023-04-01T05:09:17;2.25;;;1.92;;
34102;SDS011;20381;54.498;18.206;2023-04-01T05:11:43;2.42;;;2.17;;
34102;SDS011;20381;54.498;18.206;2023-04-01T05:14:14;2.30;;;2.05;;
34102;SDS011;20381;54.498;18.206;2023-04-01T05:16:41;4.70;;;2.20;;
34102;SDS011;20381;54.498;18.206;2023-04-01T05:19:07;2.77;;;2.02;;
34102;SDS011;20381;54.498;18.206;2023-04-01T05:21:34;12.00;;;1.95;;
34102;SDS011;20381;54.498;18.206;2023-04-01T05:24:00;12.75;;;2.98;;
34102;SDS011;20381;54.498;18.206;2023-04-01T05:26:26;6.78;;;2.15;;
34102;SDS011;20381;54.498;18.206;2023-04-01T05:28:52;3.02;;;2.27;;
34102;SDS011;20381;54.498;18.206;2023-04-01T05:31:18;3.33;;;2.27;;
34102;SDS011;20381;54.498;18.206;2023-04-01T05:33:45;3.30;;;2.55;;
34102;SDS011;20381;54.498;18.206;2023-04-01T05:36:12;2.62;;;2.30;;
34102;SDS011;20381;54.498;18.206;2023-04-01T05:38:41;6.28;;;2.30;;
34102;SDS011;20381;54.498;18.206;2023-04-01T05:41:09;3.15;;;2.40;;
34102;SDS011;20381;54.498;18.206;2023-04-01T05:43:36;2.60;;;2.40;;
34102;SDS011;20381;54.498;18.206;2023-04-01T05:48:29;4.05;;;1.50;;
34102;SDS011;20381;54.498;18.206;2023-04-01T05:50:56;6.55;;;1.67;;
34102;SDS011;20381;54.498;18.206;2023-04-01T05:53:25;8.98;;;1.77;;
34102;SDS011;20381;54.498;18.206;2023-04-01T05:55:51;2.45;;;2.10;;
34102;SDS011;20381;54.498;18.206;2023-04-01T05:58:20;2.42;;;1.62;;
34102;SDS011;20381;54.498;18.206;2023-04-01T06:00:47;1.55;;;1.45;;
34102;SDS011;20381;54.498;18.206;2023-04-01T06:03:14;1.50;;;1.40;;
34102;SDS011;20381;54.498;18.206;2023-04-01T06:05:41;1.40;;;1.30;;
34102;SDS011;20381;54.498;18.206;2023-04-01T06:08:10;1.32;;;1.17;;
34102;SDS011;20381;54.498;18.206;2023-04-01T06:10:53;1.42;;;1.27;;
34102;SDS011;20381;54.498;18.206;2023-04-01T06:16:36;1.70;;;1.35;;
34102;SDS011;20381;54.498;18.206;2023-04-01T06:33:00;2.40;;;1.40;;
34102;SDS011;20381;54.498;18.206;2023-04-01T06:35:48;3.10;;;2.00;;
34102;SDS011;20381;54.498;18.206;2023-04-01T06:52:43;3.27;;;1.27;;
34102;SDS011;20381;54.498;18.206;2023-04-01T06:57:48;2.08;;;1.27;;
34102;SDS011;20381;54.498;18.206;2023-04-01T07:00:30;2.25;;;1.00;;
34102;SDS011;20381;54.498;18.206;2023-04-01T07:03:05;1.10;;;1.00;;
34102;SDS011;20381;54.498;18.206;2023-04-01T07:05:44;1.30;;;1.05;;
34102;SDS011;20381;54.498;18.206;2023-04-01T07:08:21;1.62;;;1.22;;
34102;SDS011;20381;54.498;18.206;2023-04-01T07:13:21;1.72;;;1.20;;
34102;SDS011;20381;54.498;18.206;2023-04-01T07:15:58;3.90;;;2.67;;
34102;SDS011;20381;54.498;18.206;2023-04-01T07:18:44;4.55;;;4.00;;
34102;SDS011;20381;54.498;18.206;2023-04-01T07:24:05;2.87;;;1.80;;
34102;SDS011;20381;54.498;18.206;2023-04-01T07:26:39;1.57;;;1.25;;
34102;SDS011;20381;54.498;18.206;2023-04-01T07:29:13;1.20;;;1.10;;
34102;SDS011;20381;54.498;18.206;2023-04-01T07:34:27;3.45;;;1.45;;
34102;SDS011;20381;54.498;18.206;2023-04-01T07:37:06;2.65;;;1.40;;
34102;SDS011;20381;54.498;18.206;2023-04-01T07:42:30;2.27;;;1.60;;
34102;SDS011;20381;54.498;18.206;2023-04-01T07:45:05;3.60;;;2.30;;
34102;SDS011;20381;54.498;18.206;2023-04-01T07:55:46;2.80;;;1.57;;
34102;SDS011;20381;54.498;18.206;2023-04-01T07:58:33;2.50;;;1.55;;
34102;SDS011;20381;54.498;18.206;2023-04-01T08:14:52;2.62;;;1.50;;
34102;SDS011;20381;54.498;18.206;2023-04-01T08:20:23;3.55;;;1.85;;
34102;SDS011;20381;54.498;18.206;2023-04-01T08:22:51;2.92;;;1.50;;
34102;SDS011;20381;54.498;18.206;2023-04-01T08:25:28;2.65;;;1.80;;
34102;SDS011;20381;54.498;18.206;2023-04-01T08:28:20;2.62;;;1.40;;
34102;SDS011;20381;54.498;18.206;2023-04-01T08:30:43;1.97;;;1.13;;
34102;SDS011;20381;54.498;18.206;2023-04-01T08:38:27;3.35;;;2.35;;
34102;SDS011;20381;54.498;18.206;2023-04-01T08:40:58;2.85;;;1.90;;
34102;SDS011;20381;54.498;18.206;2023-04-01T08:48:53;2.15;;;1.35;;
34102;SDS011;20381;54.498;18.206;2023-04-01T08:57:12;2.37;;;1.10;;
34102;SDS011;20381;54.498;18.206;2023-04-01T08:59:56;2.17;;;1.20;;
34102;SDS011;20381;54.498;18.206;2023-04-01T09:02:40;1.80;;;1.30;;
34102;SDS011;20381;54.498;18.206;2023-04-01T09:08:16;1.42;;;1.05;;
34102;SDS011;20381;54.498;18.206;2023-04-01T09:11:05;1.87;;;1.22;;
34102;SDS011;20381;54.498;18.206;2023-04-01T09:13:52;1.35;;;0.78;;
34102;SDS011;20381;54.498;18.206;2023-04-01T09:22:22;7.25;;;6.05;;
34102;SDS011;20381;54.498;18.206;2023-04-01T09:25:15;2.67;;;1.90;;
34102;SDS011;20381;54.498;18.206;2023-04-01T09:42:03;1.00;;;0.80;;
34102;SDS011;20381;54.498;18.206;2023-04-01T09:44:37;0.98;;;0.80;;
34102;SDS011;20381;54.498;18.206;2023-04-01T09:52:38;2.87;;;1.65;;
34102;SDS011;20381;54.498;18.206;2023-04-01T09:55:39;1.92;;;1.22;;
34102;SDS011;20381;54.498;18.206;2023-04-01T09:58:28;1.82;;;0.70;;
34102;SDS011;20381;54.498;18.206;2023-04-01T10:09:40;1.92;;;1.32;;
34102;SDS011;20381;54.498;18.206;2023-04-01T10:30:14;1.92;;;1.37;;
34102;SDS011;20381;54.498;18.206;2023-04-01T11:03:14;1.72;;;1.10;;
34102;SDS011;20381;54.498;18.206;2023-04-01T11:08:54;2.02;;;1.20;;
34102;SDS011;20381;54.498;18.206;2023-04-01T11:14:24;4.12;;;1.20;;
34102;SDS011;20381;54.498;18.206;2023-04-01T11:22:24;1.37;;;0.78;;
34102;SDS011;20381;54.498;18.206;2023-04-01T11:30:27;1.22;;;0.60;;
34102;SDS011;20381;54.498;18.206;2023-04-01T11:32:59;3.20;;;0.78;;
34102;SDS011;20381;54.498;18.206;2023-04-01T11:35:44;1.90;;;0.70;;
34102;SDS011;20381;54.498;18.206;2023-04-01T11:41:12;1.00;;;0.75;;
34102;SDS011;20381;54.498;18.206;2023-04-01T11:46:12;1.85;;;1.20;;
34102;SDS011;20381;54.498;18.206;2023-04-01T12:08:07;2.05;;;1.10;;
34102;SDS011;20381;54.498;18.206;2023-04-01T12:11:12;1.45;;;0.78;;
34102;SDS011;20381;54.498;18.206;2023-04-01T12:13:48;3.22;;;1.62;;
34102;SDS011;20381;54.498;18.206;2023-04-01T12:24:41;2.42;;;1.50;;
34102;SDS011;20381;54.498;18.206;2023-04-01T12:27:19;2.67;;;1.85;;
34102;SDS011;20381;54.498;18.206;2023-04-01T12:29:47;1.90;;;1.50;;
34102;SDS011;20381;54.498;18.206;2023-04-01T12:35:29;4.28;;;1.95;;
34102;SDS011;20381;54.498;18.206;2023-04-01T12:51:48;3.80;;;1.27;;
34102;SDS011;20381;54.498;18.206;2023-04-01T12:57:41;2.40;;;1.30;;
34102;SDS011;20381;54.498;18.206;2023-04-01T13:00:29;1.85;;;1.27;;
34102;SDS011;20381;54.498;18.206;2023-04-01T13:03:19;2.85;;;1.82;;
34102;SDS011;20381;54.498;18.206;2023-04-01T13:16:54;3.37;;;2.10;;
34102;SDS011;20381;54.498;18.206;2023-04-01T13:19:34;3.85;;;2.72;;
34102;SDS011;20381;54.498;18.206;2023-04-01T13:27:39;5.42;;;2.40;;
34102;SDS011;20381;54.498;18.206;2023-04-01T13:38:52;4.67;;;2.67;;
34102;SDS011;20381;54.498;18.206;2023-04-01T13:44:10;1.70;;;1.52;;
34102;SDS011;20381;54.498;18.206;2023-04-01T14:08:51;5.92;;;2.67;;
34102;SDS011;20381;54.498;18.206;2023-04-01T14:25:31;7.25;;;3.80;;
34102;SDS011;20381;54.498;18.206;2023-04-01T14:28:09;5.75;;;3.67;;
34102;SDS011;20381;54.498;18.206;2023-04-01T14:34:04;5.30;;;3.95;;
34102;SDS011;20381;54.498;18.206;2023-04-01T14:36:50;5.00;;;3.20;;
34102;SDS011;20381;54.498;18.206;2023-04-01T14:48:24;8.43;;;3.90;;
34102;SDS011;20381;54.498;18.206;2023-04-01T14:50:54;5.80;;;3.50;;
34102;SDS011;20381;54.498;18.206;2023-04-01T14:55:53;7.65;;;3.22;;
34102;SDS011;20381;54.498;18.206;2023-04-01T14:58:23;6.78;;;3.72;;
34102;SDS011;20381;54.498;18.206;2023-04-01T15:01:11;7.45;;;3.58;;
34102;SDS011;20381;54.498;18.206;2023-04-01T15:07:03;14.93;;;5.15;;
34102;SDS011;20381;54.498;18.206;2023-04-01T15:10:02;7.53;;;3.70;;
34102;SDS011;20381;54.498;18.206;2023-04-01T15:15:31;6.15;;;3.20;;
34102;SDS011;20381;54.498;18.206;2023-04-01T15:26:04;9.33;;;4.12;;
34102;SDS011;20381;54.498;18.206;2023-04-01T15:28:25;8.10;;;4.85;;
34102;SDS011;20381;54.498;18.206;2023-04-01T15:30:54;6.85;;;3.90;;
34102;SDS011;20381;54.498;18.206;2023-04-01T15:52:48;6.92;;;3.80;;
34102;SDS011;20381;54.498;18.206;2023-04-01T15:58:17;6.08;;;3.20;;
34102;SDS011;20381;54.498;18.206;2023-04-01T16:00:53;4.62;;;2.58;;
34102;SDS011;20381;54.498;18.206;2023-04-01T16:09:03;7.53;;;3.60;;
34102;SDS011;20381;54.498;18.206;2023-04-01T16:14:24;10.08;;;4.00;;
34102;SDS011;20381;54.498;18.206;2023-04-01T16:20:21;8.18;;;3.80;;
34102;SDS011;20381;54.498;18.206;2023-04-01T16:22:57;7.67;;;3.55;;
34102;SDS011;20381;54.498;18.206;2023-04-01T16:25:44;8.70;;;3.55;;
34102;SDS011;20381;54.498;18.206;2023-04-01T16:28:33;10.18;;;3.67;;
34102;SDS011;20381;54.498;18.206;2023-04-01T16:31:04;11.85;;;4.03;;
34102;SDS011;20381;54.498;18.206;2023-04-01T16:34:10;5.92;;;3.62;;
34102;SDS011;20381;54.498;18.206;2023-04-01T16:36:42;7.97;;;3.47;;
34102;SDS011;20381;54.498;18.206;2023-04-01T16:44:54;6.05;;;3.60;;
34102;SDS011;20381;54.498;18.206;2023-04-01T16:47:24;6.83;;;4.05;;
34102;SDS011;20381;54.498;18.206;2023-04-01T16:50:00;7.85;;;3.30;;
34102;SDS011;20381;54.498;18.206;2023-04-01T16:55:52;10.15;;;4.55;;
34102;SDS011;20381;54.498;18.206;2023-04-01T16:58:25;7.10;;;4.05;;
34102;SDS011;20381;54.498;18.206;2023-04-01T17:01:04;9.55;;;4.05;;
34102;SDS011;20381;54.498;18.206;2023-04-01T17:03:44;8.23;;;3.80;;
34102;SDS011;20381;54.498;18.206;2023-04-01T17:09:04;9.43;;;4.07;;
34102;SDS011;20381;54.498;18.206;2023-04-01T17:11:52;6.33;;;3.33;;
34102;SDS011;20381;54.498;18.206;2023-04-01T17:17:45;12.18;;;4.35;;
34102;SDS011;20381;54.498;18.206;2023-04-01T17:20:25;8.35;;;4.42;;
34102;SDS011;20381;54.498;18.206;2023-04-01T17:42:57;5.05;;;2.95;;
34102;SDS011;20381;54.498;18.206;2023-04-01T17:45:42;6.47;;;3.40;;
34102;SDS011;20381;54.498;18.206;2023-04-01T17:51:06;5.67;;;3.42;;
34102;SDS011;20381;54.498;18.206;2023-04-01T17:56:23;5.55;;;3.10;;
34102;SDS011;20381;54.498;18.206;2023-04-01T18:04:26;6.58;;;3.15;;
34102;SDS011;20381;54.498;18.206;2023-04-01T18:15:31;9.18;;;4.40;;
34102;SDS011;20381;54.498;18.206;2023-04-01T18:21:18;7.70;;;3.35;;
34102;SDS011;20381;54.498;18.206;2023-04-01T18:24:16;6.53;;;3.22;;
34102;SDS011;20381;54.498;18.206;2023-04-01T18:32:34;9.05;;;3.98;;
34102;SDS011;20381;54.498;18.206;2023-04-01T18:35:12;7.28;;;3.58;;
34102;SDS011;20381;54.498;18.206;2023-04-01T18:40:34;7.03;;;3.70;;
34102;SDS011;20381;54.498;18.206;2023-04-01T18:43:04;8.35;;;4.72;;
34102;SDS011;20381;54.498;18.206;2023-04-01T18:51:03;26.73;;;12.03;;
34102;SDS011;20381;54.498;18.206;2023-04-01T18:53:35;7.05;;;3.98;;
34102;SDS011;20381;54.498;18.206;2023-04-01T18:56:08;8.63;;;3.80;;
34102;SDS011;20381;54.498;18.206;2023-04-01T19:01:36;7.22;;;3.55;;
34102;SDS011;20381;54.498;18.206;2023-04-01T19:04:09;6.20;;;3.83;;
34102;SDS011;20381;54.498;18.206;2023-04-01T19:12:21;6.90;;;4.28;;
34102;SDS011;20381;54.498;18.206;2023-04-01T19:17:58;4.58;;;3.40;;
34102;SDS011;20381;54.498;18.206;2023-04-01T19:25:58;6.20;;;3.12;;
34102;SDS011;20381;54.498;18.206;2023-04-01T19:31:50;5.60;;;2.62;;
34102;SDS011;20381;54.498;18.206;2023-04-01T19:34:25;6.10;;;3.00;;
34102;SDS011;20381;54.498;18.206;2023-04-01T19:36:59;5.35;;;3.08;;
34102;SDS011;20381;54.498;18.206;2023-04-01T19:44:58;4.60;;;2.58;;
34102;SDS011;20381;54.498;18.206;2023-04-01T19:53:18;4.92;;;2.70;;
34102;SDS011;20381;54.498;18.206;2023-04-01T19:55:50;4.42;;;2.05;;
34102;SDS011;20381;54.498;18.206;2023-04-01T19:58:24;6.50;;;2.65;;
34102;SDS011;20381;54.498;18.206;2023-04-01T20:00:59;4.42;;;2.20;;
34102;SDS011;20381;54.498;18.206;2023-04-01T20:09:04;4.70;;;2.40;;
34102;SDS011;20381;54.498;18.206;2023-04-01T20:11:52;5.33;;;2.33;;
34102;SDS011;20381;54.498;18.206;2023-04-01T20:14:28;3.92;;;2.27;;
34102;SDS011;20381;54.498;18.206;2023-04-01T20:22:19;4.72;;;2.77;;
34102;SDS011;20381;54.498;18.206;2023-04-01T20:24:47;6.25;;;2.15;;
34102;SDS011;20381;54.498;18.206;2023-04-01T20:27:22;3.27;;;1.95;;
34102;SDS011;20381;54.498;18.206;2023-04-01T20:29:55;3.90;;;2.15;;
34102;SDS011;20381;54.498;18.206;2023-04-01T20:37:52;6.17;;;1.92;;
34102;SDS011;20381;54.498;18.206;2023-04-01T20:40:26;3.90;;;2.17;;
34102;SDS011;20381;54.498;18.206;2023-04-01T20:45:57;3.37;;;1.60;;
34102;SDS011;20381;54.498;18.206;2023-04-01T20:51:16;4.80;;;2.05;;
34102;SDS011;20381;54.498;18.206;2023-04-01T20:56:36;6.33;;;2.05;;
34102;SDS011;20381;54.498;18.206;2023-04-01T21:05:00;4.40;;;2.12;;
34102;SDS011;20381;54.498;18.206;2023-04-01T21:07:37;6.45;;;2.05;;
34102;SDS011;20381;54.498;18.206;2023-04-01T21:16:14;3.83;;;2.00;;
34102;SDS011;20381;54.498;18.206;2023-04-01T21:21:50;8.88;;;2.35;;
34102;SDS011;20381;54.498;18.206;2023-04-01T21:27:07;4.45;;;2.30;;
34102;SDS011;20381;54.498;18.206;2023-04-01T21:32:27;5.30;;;2.40;;
34102;SDS011;20381;54.498;18.206;2023-04-01T21:49:01;3.87;;;2.00;;
34102;SDS011;20381;54.498;18.206;2023-04-01T21:51:40;5.37;;;2.27;;
34102;SDS011;20381;54.498;18.206;2023-04-01T22:11:03;6.70;;;2.27;;
34102;SDS011;20381;54.498;18.206;2023-04-01T22:13:27;6.47;;;2.30;;
34102;SDS011;20381;54.498;18.206;2023-04-01T22:16:14;4.17;;;1.92;;
34102;SDS011;20381;54.498;18.206;2023-04-01T22:19:00;5.00;;;2.12;;
34102;SDS011;20381;54.498;18.206;2023-04-01T22:21:44;3.50;;;2.22;;
34102;SDS011;20381;54.498;18.206;2023-04-01T22:27:24;5.75;;;2.90;;
34102;SDS011;20381;54.498;18.206;2023-04-01T22:30:09;4.85;;;1.95;;
34102;SDS011;20381;54.498;18.206;2023-04-01T22:32:46;4.08;;;2.20;;
34102;SDS011;20381;54.498;18.206;2023-04-01T22:41:08;4.37;;;2.22;;
34102;SDS011;20381;54.498;18.206;2023-04-01T22:48:41;5.00;;;2.20;;
34102;SDS011;20381;54.498;18.206;2023-04-01T22:51:38;9.10;;;2.00;;
34102;SDS011;20381;54.498;18.206;2023-04-01T22:56:47;6.85;;;2.22;;
34102;SDS011;20381;54.498;18.206;2023-04-01T23:01:50;6.85;;;1.90;;
34102;SDS011;20381;54.498;18.206;2023-04-01T23:04:22;6.40;;;2.12;;
34102;SDS011;20381;54.498;18.206;2023-04-01T23:06:52;10.45;;;2.40;;
34102;SDS011;20381;54.498;18.206;2023-04-01T23:09:23;6.47;;;2.10;;
34102;SDS011;20381;54.498;18.206;2023-04-01T23:11:55;9.23;;;2.37;;
34102;SDS011;20381;54.498;18.206;2023-04-01T23:14:31;5.87;;;2.02;;
34102;SDS011;20381;54.498;18.206;2023-04-01T23:17:09;5.25;;;2.10;;
34102;SDS011;20381;54.498;18.206;2023-04-01T23:22:29;7.40;;;2.10;;
34102;SDS011;20381;54.498;18.206;2023-04-01T23:25:10;7.90;;;1.90;;
34102;SDS011;20381;54.498;18.206;2023-04-01T23:28:03;7.40;;;1.87;;
34102;SDS011;20381;54.498;18.206;2023-04-01T23:30:52;5.47;;;1.67;;
34102;SDS011;20381;54.498;18.206;2023-04-01T23:33:10;7.78;;;1.92;;
34102;SDS011;20381;54.498;18.206;2023-04-01T23:35:59;3.05;;;1.47;;
34102;SDS011;20381;54.498;18.206;2023-04-01T23:38:40;8.13;;;1.52;;
34102;SDS011;20381;54.498;18.206;2023-04-01T23:41:28;5.67;;;1.82;;
34102;SDS011;20381;54.498;18.206;2023-04-01T23:43:58;3.75;;;1.45;;
34102;SDS011;20381;54.498;18.206;2023-04-01T23:46:26;8.10;;;1.67;;
34102;SDS011;20381;54.498;18.206;2023-04-01T23:48:54;5.03;;;1.80;;
34102;SDS011;20381;54.498;18.206;2023-04-01T23:51:25;7.90;;;2.43;;
34102;SDS011;20381;54.498;18.206;2023-04-01T23:54:04;6.08;;;1.98;;
34102;SDS011;20381;54.498;18.206;2023-04-01T23:56:48;4.30;;;1.37;;
34102;SDS011;20381;54.498;18.206;2023-04-01T23:59:24;3.42;;;1.40;;
